sensor_id;sensor_type;location;lat;lon;timestamp;pressure;altitude;pressure_sealevel;temperature;humidity
21779;BME280;11050;52.222;20.916;2023-04-02T00:08:21;99175.78;;;8.64;100.00
21779;BME280;11050;52.222;20.916;2023-04-02T00:10:59;99181.25;;;8.64;100.00
21779;BME280;11050;52.222;20.916;2023-04-02T00:16:02;99189.75;;;8.57;100.00
21779;BME280;11050;52.222;20.916;2023-04-02T00:18:31;99182.34;;;8.58;100.00
21779;BME280;11050;52.222;20.916;2023-04-02T00:21:25;99184.28;;;8.57;100.00
21779;BME280;11050;52.222;20.916;2023-04-02T00:23:54;99191.09;;;8.60;100.00
21779;BME280;11050;52.222;20.916;2023-04-02T00:26:38;99179.06;;;8.61;100.00
21779;BME280;11050;52.222;20.916;2023-04-02T00:29:13;99184.28;;;8.63;100.00
21779;BME280;11050;52.222;20.916;2023-04-02T00:31:50;99189.75;;;8.63;100.00
21779;BME280;11050;52.222;20.916;2023-04-02T00:34:35;99200.97;;;8.61;100.00
21779;BME280;11050;52.222;20.916;2023-04-02T00:37:02;99197.41;;;8.60;100.00
21779;BME280;11050;52.222;20.916;2023-04-02T00:39:33;99190.25;;;8.54;100.00
21779;BME280;11050;52.222;20.916;2023-04-02T00:42:03;99206.97;;;8.58;100.00
21779;BME280;11050;52.222;20.916;2023-04-02T00:44:35;99201.22;;;8.54;100.00
21779;BME280;11050;52.222;20.916;2023-04-02T00:49:40;99185.28;;;8.41;100.00
21779;BME280;11050;52.222;20.916;2023-04-02T00:52:14;99193.50;;;8.41;100.00
21779;BME280;11050;52.222;20.916;2023-04-02T00:54:48;99200.06;;;8.40;100.00
21779;BME280;11050;52.222;20.916;2023-04-02T00:57:20;99200.84;;;8.31;100.00
21779;BME280;11050;52.222;20.916;2023-04-02T01:05:43;99205.38;;;8.15;100.00
21779;BME280;11050;52.222;20.916;2023-04-02T01:20:02;99210.19;;;7.98;100.00
21779;BME280;11050;52.222;20.916;2023-04-02T01:22:55;99224.44;;;8.00;100.00
21779;BME280;11050;52.222;20.916;2023-04-02T01:25:41;99209.38;;;7.98;100.00
21779;BME280;11050;52.222;20.916;2023-04-02T01:28:17;99221.16;;;8.03;100.00
21779;BME280;11050;52.222;20.916;2023-04-02T01:30:53;99223.13;;;8.08;100.00
21779;BME280;11050;52.222;20.916;2023-04-02T01:33:29;99225.56;;;8.04;100.00
21779;BME280;11050;52.222;20.916;2023-04-02T01:45:09;99239.22;;;7.99;100.00
21779;BME280;11050;52.222;20.916;2023-04-02T01:47:37;99237.78;;;7.92;100.00
21779;BME280;11050;52.222;20.916;2023-04-02T01:52:55;99238.38;;;7.99;100.00
21779;BME280;11050;52.222;20.916;2023-04-02T01:55:37;99245.72;;;7.93;100.00
21779;BME280;11050;52.222;20.916;2023-04-02T01:58:04;99250.63;;;7.91;100.00
21779;BME280;11050;52.222;20.916;2023-04-02T02:00:33;99244.31;;;7.86;100.00
21779;BME280;11050;52.222;20.916;2023-04-02T02:03:01;99248.94;;;7.85;100.00
21779;BME280;11050;52.222;20.916;2023-04-02T02:05:28;99259.91;;;7.90;100.00
21779;BME280;11050;52.222;20.916;2023-04-02T02:07:56;99259.09;;;7.90;100.00
21779;BME280;11050;52.222;20.916;2023-04-02T02:10:34;99259.34;;;7.88;100.00
21779;BME280;11050;52.222;20.916;2023-04-02T02:13:01;99265.09;;;7.87;100.00
21779;BME280;11050;52.222;20.916;2023-04-02T02:15:31;99267.22;;;7.80;100.00
21779;BME280;11050;52.222;20.916;2023-04-02T02:18:03;99268.56;;;7.77;100.00
21779;BME280;11050;52.222;20.916;2023-04-02T02:20:31;99274.31;;;7.81;100.00
21779;BME280;11050;52.222;20.916;2023-04-02T02:23:00;99271.88;;;7.79;100.00
21779;BME280;11050;52.222;20.916;2023-04-02T02:25:32;99282.53;;;7.81;100.00
21779;BME280;11050;52.222;20.916;2023-04-02T02:28:32;99273.22;;;7.77;100.00
21779;BME280;11050;52.222;20.916;2023-04-02T02:31:14;99284.66;;;7.74;100.00
21779;BME280;11050;52.222;20.916;2023-04-02T02:33:49;99278.94;;;7.75;100.00
21779;BME280;11050;52.222;20.916;2023-04-02T02:36:33;99279.25;;;7.79;100.00
21779;BME280;11050;52.222;20.916;2023-04-02T02:39:28;99287.97;;;7.76;100.00
21779;BME280;11050;52.222;20.916;2023-04-02T02:42:42;99290.13;;;7.74;100.00
21779;BME280;11050;52.222;20.916;2023-04-02T02:45:26;99287.66;;;7.72;100.00
21779;BME280;11050;52.222;20.916;2023-04-02T02:47:54;99289.38;;;7.78;100.00
21779;BME280;11050;52.222;20.916;2023-04-02T02:50:27;99297.50;;;7.73;100.00
21779;BME280;11050;52.222;20.916;2023-04-02T02:53:05;99298.88;;;7.71;100.00
21779;BME280;11050;52.222;20.916;2023-04-02T02:55:35;99298.81;;;7.65;100.00
21779;BME280;11050;52.222;20.916;2023-04-02T02:58:07;99310.84;;;7.64;100.00
21779;BME280;11050;52.222;20.916;2023-04-02T03:00:36;99310.56;;;7.66;100.00
21779;BME280;11050;52.222;20.916;2023-04-02T03:03:11;99301.53;;;7.65;100.00
21779;BME280;11050;52.222;20.916;2023-04-02T03:05:39;99298.81;;;7.65;100.00
21779;BME280;11050;52.222;20.916;2023-04-02T03:08:24;99290.84;;;7.59;100.00
21779;BME280;11050;52.222;20.916;2023-04-02T03:11:04;99313.03;;;7.67;100.00
21779;BME280;11050;52.222;20.916;2023-04-02T03:13:36;99311.72;;;7.70;100.00
21779;BME280;11050;52.222;20.916;2023-04-02T03:19:01;99325.94;;;7.72;100.00
21779;BME280;11050;52.222;20.916;2023-04-02T03:22:01;99328.72;;;7.77;100.00
21779;BME280;11050;52.222;20.916;2023-04-02T03:25:02;99342.41;;;7.77;100.00
21779;BME280;11050;52.222;20.916;2023-04-02T03:27:37;99333.63;;;7.75;100.00
21779;BME280;11050;52.222;20.916;2023-04-02T03:30:35;99338.03;;;7.76;100.00
21779;BME280;11050;52.222;20.916;2023-04-02T03:33:23;99347.63;;;7.79;100.00
21779;BME280;11050;52.222;20.916;2023-04-02T03:36:27;99351.75;;;7.81;100.00
21779;BME280;11050;52.222;20.916;2023-04-02T03:42:00;99358.00;;;7.77;100.00
21779;BME280;11050;52.222;20.916;2023-04-02T03:44:34;99365.38;;;7.76;100.00
21779;BME280;11050;52.222;20.916;2023-04-02T03:47:38;99372.69;;;7.71;100.00
21779;BME280;11050;52.222;20.916;2023-04-02T03:51:09;99379.53;;;7.73;100.00
21779;BME280;11050;52.222;20.916;2023-04-02T03:53:38;99378.66;;;7.67;100.00
21779;BME280;11050;52.222;20.916;2023-04-02T03:56:05;99376.41;;;7.59;100.00
21779;BME280;11050;52.222;20.916;2023-04-02T03:58:47;99371.25;;;7.63;100.00
21779;BME280;11050;52.222;20.916;2023-04-02T04:01:21;99377.78;;;7.62;100.00
21779;BME280;11050;52.222;20.916;2023-04-02T04:03:55;99385.19;;;7.61;100.00
21779;BME280;11050;52.222;20.916;2023-04-02T04:06:31;99392.00;;;7.59;100.00
21779;BME280;11050;52.222;20.916;2023-04-02T04:09:34;99383.41;;;7.50;100.00
21779;BME280;11050;52.222;20.916;2023-04-02T04:12:35;99386.09;;;7.45;100.00
21779;BME280;11050;52.222;20.916;2023-04-02T04:18:02;99408.97;;;7.39;100.00
21779;BME280;11050;52.222;20.916;2023-04-02T04:20:40;99402.31;;;7.30;100.00
21779;BME280;11050;52.222;20.916;2023-04-02T04:23:38;99411.03;;;7.27;100.00
21779;BME280;11050;52.222;20.916;2023-04-02T04:29:06;99423.78;;;7.22;100.00
21779;BME280;11050;52.222;20.916;2023-04-02T04:31:46;99425.44;;;7.23;100.00
21779;BME280;11050;52.222;20.916;2023-04-02T04:34:19;99420.22;;;7.21;100.00
21779;BME280;11050;52.222;20.916;2023-04-02T04:36:58;99419.41;;;7.21;100.00
21779;BME280;11050;52.222;20.916;2023-04-02T04:39:42;99421.81;;;7.17;100.00
21779;BME280;11050;52.222;20.916;2023-04-02T04:42:21;99424.03;;;7.20;100.00
21779;BME280;11050;52.222;20.916;2023-04-02T04:48:08;99445.00;;;7.15;100.00
21779;BME280;11050;52.222;20.916;2023-04-02T04:51:00;99455.84;;;7.10;100.00
21779;BME280;11050;52.222;20.916;2023-04-02T04:53:29;99456.69;;;7.10;100.00
21779;BME280;11050;52.222;20.916;2023-04-02T04:56:02;99452.38;;;7.14;100.00
21779;BME280;11050;52.222;20.916;2023-04-02T04:58:42;99462.75;;;7.12;100.00
21779;BME280;11050;52.222;20.916;2023-04-02T05:01:19;99469.00;;;7.13;100.00
21779;BME280;11050;52.222;20.916;2023-04-02T05:04:27;99472.56;;;7.13;100.00
21779;BME280;11050;52.222;20.916;2023-04-02T05:07:17;99473.72;;;7.17;100.00
21779;BME280;11050;52.222;20.916;2023-04-02T05:10:24;99477.47;;;7.11;100.00
21779;BME280;11050;52.222;20.916;2023-04-02T05:13:38;99477.28;;;7.18;100.00
21779;BME280;11050;52.222;20.916;2023-04-02T05:16:30;99489.38;;;7.22;100.00
21779;BME280;11050;52.222;20.916;2023-04-02T05:21:39;99503.84;;;7.22;100.00
21779;BME280;11050;52.222;20.916;2023-04-02T05:27:11;99497.50;;;7.00;100.00
21779;BME280;11050;52.222;20.916;2023-04-02T05:29:45;99497.84;;;7.04;100.00
21779;BME280;11050;52.222;20.916;2023-04-02T05:32:35;99500.09;;;7.07;100.00
21779;BME280;11050;52.222;20.916;2023-04-02T05:35:06;99504.44;;;7.08;100.00
21779;BME280;11050;52.222;20.916;2023-04-02T05:37:32;99516.84;;;7.15;100.00
21779;BME280;11050;52.222;20.916;2023-04-02T05:40:12;99515.38;;;7.08;100.00
21779;BME280;11050;52.222;20.916;2023-04-02T05:42:44;99517.63;;;7.11;100.00
21779;BME280;11050;52.222;20.916;2023-04-02T05:45:31;99522.25;;;7.10;100.00
21779;BME280;11050;52.222;20.916;2023-04-02T05:48:06;99517.22;;;7.02;100.00
21779;BME280;11050;52.222;20.916;2023-04-02T05:50:53;99529.13;;;6.96;100.00
21779;BME280;11050;52.222;20.916;2023-04-02T05:54:00;99532.94;;;6.95;100.00
21779;BME280;11050;52.222;20.916;2023-04-02T05:56:36;99540.56;;;6.93;100.00
21779;BME280;11050;52.222;20.916;2023-04-02T05:59:23;99534.91;;;7.00;100.00
21779;BME280;11050;52.222;20.916;2023-04-02T06:02:20;99543.34;;;7.15;100.00
21779;BME280;11050;52.222;20.916;2023-04-02T06:05:01;99546.44;;;7.18;100.00
21779;BME280;11050;52.222;20.916;2023-04-02T06:07:40;99551.44;;;7.26;100.00
21779;BME280;11050;52.222;20.916;2023-04-02T06:12:52;99561.97;;;7.34;100.00
21779;BME280;11050;52.222;20.916;2023-04-02T06:15:23;99574.31;;;7.37;100.00
21779;BME280;11050;52.222;20.916;2023-04-02T06:18:07;99577.19;;;7.30;100.00
21779;BME280;11050;52.222;20.916;2023-04-02T06:20:34;99571.47;;;7.32;100.00
21779;BME280;11050;52.222;20.916;2023-04-02T06:28:56;99579.28;;;7.23;100.00
21779;BME280;11050;52.222;20.916;2023-04-02T06:31:44;99587.41;;;7.18;100.00
21779;BME280;11050;52.222;20.916;2023-04-02T06:34:22;99582.94;;;7.12;100.00
21779;BME280;11050;52.222;20.916;2023-04-02T06:36:50;99590.63;;;7.15;100.00
21779;BME280;11050;52.222;20.916;2023-04-02T06:39:22;99591.22;;;7.17;100.00
21779;BME280;11050;52.222;20.916;2023-04-02T06:42:04;99584.59;;;7.13;100.00
21779;BME280;11050;52.222;20.916;2023-04-02T06:44:34;99603.63;;;7.25;100.00
21779;BME280;11050;52.222;20.916;2023-04-02T06:47:32;99599.25;;;7.24;100.00
21779;BME280;11050;52.222;20.916;2023-04-02T06:50:19;99617.03;;;7.26;100.00
21779;BME280;11050;52.222;20.916;2023-04-02T06:52:50;99615.66;;;7.24;100.00
21779;BME280;11050;52.222;20.916;2023-04-02T06:57:48;99628.16;;;7.03;100.00
21779;BME280;11050;52.222;20.916;2023-04-02T07:00:37;99620.03;;;6.92;100.00
21779;BME280;11050;52.222;20.916;2023-04-02T07:03:29;99625.03;;;6.83;100.00
21779;BME280;11050;52.222;20.916;2023-04-02T07:05:57;99625.22;;;6.77;100.00
21779;BME280;11050;52.222;20.916;2023-04-02T07:08:25;99632.06;;;6.79;100.00
21779;BME280;11050;52.222;20.916;2023-04-02T07:10:51;99625.22;;;6.77;100.00
21779;BME280;11050;52.222;20.916;2023-04-02T07:13:22;99634.41;;;6.87;100.00
21779;BME280;11050;52.222;20.916;2023-04-02T07:15:52;99627.19;;;6.81;100.00
21779;BME280;11050;52.222;20.916;2023-04-02T07:18:28;99638.69;;;6.83;100.00
21779;BME280;11050;52.222;20.916;2023-04-02T07:20:55;99640.25;;;6.79;100.00
21779;BME280;11050;52.222;20.916;2023-04-02T07:23:21;99645.72;;;6.79;100.00
21779;BME280;11050;52.222;20.916;2023-04-02T07:25:53;99652.19;;;6.73;100.00
21779;BME280;11050;52.222;20.916;2023-04-02T07:28:20;99653.25;;;6.72;100.00
21779;BME280;11050;52.222;20.916;2023-04-02T07:30:47;99652.41;;;6.71;100.00
21779;BME280;11050;52.222;20.916;2023-04-02T07:33:15;99656.56;;;6.74;100.00
21779;BME280;11050;52.222;20.916;2023-04-02T07:35:42;99659.28;;;6.74;100.00
21779;BME280;11050;52.222;20.916;2023-04-02T07:38:08;99662.69;;;6.81;100.00
21779;BME280;11050;52.222;20.916;2023-04-02T07:40:34;99674.44;;;6.82;100.00
21779;BME280;11050;52.222;20.916;2023-04-02T07:43:01;99674.78;;;6.85;100.00
21779;BME280;11050;52.222;20.916;2023-04-02T07:45:26;99688.69;;;6.84;100.00
21779;BME280;11050;52.222;20.916;2023-04-02T07:47:53;99664.38;;;6.82;100.00
21779;BME280;11050;52.222;20.916;2023-04-02T07:50:19;99680.19;;;6.97;100.00
21779;BME280;11050;52.222;20.916;2023-04-02T07:52:45;99679.78;;;7.05;100.00
21779;BME280;11050;52.222;20.916;2023-04-02T07:55:13;99684.28;;;7.11;100.00
21779;BME280;11050;52.222;20.916;2023-04-02T07:57:52;99674.06;;;7.06;100.00
21779;BME280;11050;52.222;20.916;2023-04-02T08:00:19;99687.34;;;7.14;100.00
21779;BME280;11050;52.222;20.916;2023-04-02T08:02:46;99691.56;;;7.22;100.00
21779;BME280;11050;52.222;20.916;2023-04-02T08:05:12;99701.75;;;7.26;100.00
21779;BME280;11050;52.222;20.916;2023-04-02T08:07:39;99709.34;;;7.24;100.00
21779;BME280;11050;52.222;20.916;2023-04-02T08:10:07;99712.34;;;7.23;100.00
21779;BME280;11050;52.222;20.916;2023-04-02T08:12:34;99712.16;;;7.13;100.00
21779;BME280;11050;52.222;20.916;2023-04-02T08:15:00;99713.16;;;7.07;100.00
21779;BME280;11050;52.222;20.916;2023-04-02T08:17:28;99720.25;;;7.08;100.00
21779;BME280;11050;52.222;20.916;2023-04-02T08:19:57;99729.88;;;7.10;100.00
21779;BME280;11050;52.222;20.916;2023-04-02T08:22:29;99724.31;;;7.05;100.00
21779;BME280;11050;52.222;20.916;2023-04-02T08:24:55;99717.44;;;7.03;100.00
21779;BME280;11050;52.222;20.916;2023-04-02T08:27:25;99724.84;;;7.19;100.00
21779;BME280;11050;52.222;20.916;2023-04-02T08:29:51;99715.25;;;7.33;100.00
21779;BME280;11050;52.222;20.916;2023-04-02T08:32:17;99735.81;;;7.52;100.00
21779;BME280;11050;52.222;20.916;2023-04-02T08:34:43;99745.09;;;7.51;100.00
21779;BME280;11050;52.222;20.916;2023-04-02T08:37:13;99755.88;;;7.41;100.00
21779;BME280;11050;52.222;20.916;2023-04-02T08:39:39;99758.88;;;7.28;100.00
21779;BME280;11050;52.222;20.916;2023-04-02T08:42:22;99771.75;;;7.27;100.00
21779;BME280;11050;52.222;20.916;2023-04-02T08:45:35;99762.91;;;7.09;100.00
21779;BME280;11050;52.222;20.916;2023-04-02T08:48:10;99757.00;;;7.00;100.00
21779;BME280;11050;52.222;20.916;2023-04-02T08:50:40;99781.13;;;7.03;100.00
21779;BME280;11050;52.222;20.916;2023-04-02T08:53:24;99764.06;;;6.85;100.00
21779;BME280;11050;52.222;20.916;2023-04-02T08:58:41;99786.16;;;6.83;100.00
21779;BME280;11050;52.222;20.916;2023-04-02T09:04:17;99792.97;;;6.69;100.00
21779;BME280;11050;52.222;20.916;2023-04-02T09:06:46;99783.47;;;6.60;100.00
21779;BME280;11050;52.222;20.916;2023-04-02T09:09:15;99788.47;;;6.63;100.00
21779;BME280;11050;52.222;20.916;2023-04-02T09:12:01;99782.88;;;6.69;100.00
21779;BME280;11050;52.222;20.916;2023-04-02T09:14:44;99791.19;;;6.75;100.00
21779;BME280;11050;52.222;20.916;2023-04-02T09:17:22;99788.47;;;6.75;100.00
21779;BME280;11050;52.222;20.916;2023-04-02T09:20:18;99785.69;;;6.86;100.00
21779;BME280;11050;52.222;20.916;2023-04-02T09:22:48;99789.69;;;6.95;100.00
21779;BME280;11050;52.222;20.916;2023-04-02T09:25:26;99807.69;;;7.08;100.00
21779;BME280;11050;52.222;20.916;2023-04-02T09:27:56;99794.69;;;7.15;100.00
21779;BME280;11050;52.222;20.916;2023-04-02T09:33:04;99805.25;;;7.23;100.00
21779;BME280;11050;52.222;20.916;2023-04-02T09:35:55;99812.91;;;7.37;100.00
21779;BME280;11050;52.222;20.916;2023-04-02T09:38:27;99805.53;;;7.38;100.00
21779;BME280;11050;52.222;20.916;2023-04-02T09:41:18;99809.53;;;7.47;100.00
21779;BME280;11050;52.222;20.916;2023-04-02T09:43:44;99822.56;;;7.56;100.00
21779;BME280;11050;52.222;20.916;2023-04-02T09:46:24;99825.16;;;7.63;100.00
21779;BME280;11050;52.222;20.916;2023-04-02T09:48:59;99828.44;;;7.48;100.00
21779;BME280;11050;52.222;20.916;2023-04-02T09:51:32;99804.22;;;7.40;100.00
21779;BME280;11050;52.222;20.916;2023-04-02T09:54:07;99824.81;;;7.59;100.00
21779;BME280;11050;52.222;20.916;2023-04-02T09:56:45;99828.94;;;7.62;100.00
21779;BME280;11050;52.222;20.916;2023-04-02T09:59:22;99827.03;;;7.62;100.00
21779;BME280;11050;52.222;20.916;2023-04-02T10:04:46;99842.66;;;7.50;100.00
21779;BME280;11050;52.222;20.916;2023-04-02T10:07:39;99843.41;;;7.46;100.00
21779;BME280;11050;52.222;20.916;2023-04-02T10:10:19;99855.00;;;7.36;100.00
21779;BME280;11050;52.222;20.916;2023-04-02T10:13:37;99857.63;;;7.31;100.00
21779;BME280;11050;52.222;20.916;2023-04-02T10:18:47;99860.84;;;7.28;100.00
21779;BME280;11050;52.222;20.916;2023-04-02T10:21:22;99865.63;;;7.21;100.00
21779;BME280;11050;52.222;20.916;2023-04-02T10:23:49;99863.41;;;7.07;100.00
21779;BME280;11050;52.222;20.916;2023-04-02T10:26:56;99871.38;;;7.08;100.00
21779;BME280;11050;52.222;20.916;2023-04-02T10:29:55;99876.59;;;7.10;100.00
21779;BME280;11050;52.222;20.916;2023-04-02T10:33:08;99855.84;;;6.97;100.00
21779;BME280;11050;52.222;20.916;2023-04-02T10:41:20;99883.94;;;7.09;100.00
21779;BME280;11050;52.222;20.916;2023-04-02T10:54:53;99905.09;;;7.14;100.00
21779;BME280;11050;52.222;20.916;2023-04-02T11:03:13;99923.72;;;7.05;100.00
21779;BME280;11050;52.222;20.916;2023-04-02T11:05:52;99929.59;;;6.97;100.00
21779;BME280;11050;52.222;20.916;2023-04-02T11:08:42;99931.59;;;6.90;100.00
21779;BME280;11050;52.222;20.916;2023-04-02T11:11:16;99941.13;;;6.88;100.00
21779;BME280;11050;52.222;20.916;2023-04-02T11:14:00;99936.72;;;6.87;100.00
21779;BME280;11050;52.222;20.916;2023-04-02T11:16:28;99925.44;;;6.83;100.00
21779;BME280;11050;52.222;20.916;2023-04-02T11:19:26;99939.34;;;6.82;100.00
21779;BME280;11050;52.222;20.916;2023-04-02T11:22:02;99945.16;;;6.73;100.00
21779;BME280;11050;52.222;20.916;2023-04-02T11:48:42;99990.22;;;6.41;100.00
21779;BME280;11050;52.222;20.916;2023-04-02T11:53:48;99997.47;;;6.47;100.00
21779;BME280;11050;52.222;20.916;2023-04-02T11:56:42;100006.78;;;6.58;100.00
21779;BME280;11050;52.222;20.916;2023-04-02T11:59:35;100001.44;;;6.75;100.00
21779;BME280;11050;52.222;20.916;2023-04-02T12:02:27;100000.13;;;6.89;100.00
21779;BME280;11050;52.222;20.916;2023-04-02T12:05:34;100002.41;;;6.92;100.00
21779;BME280;11050;52.222;20.916;2023-04-02T12:08:19;100007.50;;;6.88;100.00
21779;BME280;11050;52.222;20.916;2023-04-02T12:16:13;100015.09;;;7.09;100.00
21779;BME280;11050;52.222;20.916;2023-04-02T12:18:49;100013.19;;;6.98;100.00
21779;BME280;11050;52.222;20.916;2023-04-02T12:21:24;100021.38;;;6.98;100.00
21779;BME280;11050;52.222;20.916;2023-04-02T12:23:54;100017.47;;;6.94;100.00
21779;BME280;11050;52.222;20.916;2023-04-02T12:26:31;100024.34;;;6.85;100.00
21779;BME280;11050;52.222;20.916;2023-04-02T12:29:33;100014.59;;;6.78;100.00
21779;BME280;11050;52.222;20.916;2023-04-02T12:32:00;100022.81;;;6.78;100.00
21779;BME280;11050;52.222;20.916;2023-04-02T12:34:29;100016.66;;;6.82;100.00
21779;BME280;11050;52.222;20.916;2023-04-02T12:36:57;100026.84;;;6.87;100.00
21779;BME280;11050;52.222;20.916;2023-04-02T12:39:32;100031.00;;;6.89;100.00
21779;BME280;11050;52.222;20.916;2023-04-02T12:41:58;100019.22;;;6.77;100.00
21779;BME280;11050;52.222;20.916;2023-04-02T12:44:28;100037.16;;;6.85;100.00
21779;BME280;11050;52.222;20.916;2023-04-02T12:46:56;100033.28;;;6.81;100.00
21779;BME280;11050;52.222;20.916;2023-04-02T12:49:42;100038.50;;;6.82;100.00
21779;BME280;11050;52.222;20.916;2023-04-02T12:52:12;100053.19;;;6.81;100.00
21779;BME280;11050;52.222;20.916;2023-04-02T12:59:52;100069.72;;;6.86;100.00
21779;BME280;11050;52.222;20.916;2023-04-02T13:02:28;100058.06;;;6.79;100.00
21779;BME280;11050;52.222;20.916;2023-04-02T13:04:58;100072.47;;;6.86;100.00
21779;BME280;11050;52.222;20.916;2023-04-02T13:07:32;100064.59;;;6.78;100.00
21779;BME280;11050;52.222;20.916;2023-04-02T13:10:24;100067.69;;;6.82;100.00
21779;BME280;11050;52.222;20.916;2023-04-02T13:13:02;100079.81;;;6.86;100.00
21779;BME280;11050;52.222;20.916;2023-04-02T13:15:32;100066.50;;;6.78;100.00
21779;BME280;11050;52.222;20.916;2023-04-02T13:18:17;100078.13;;;6.85;100.00
21779;BME280;11050;52.222;20.916;2023-04-02T13:21:03;100078.63;;;6.82;100.00
21779;BME280;11050;52.222;20.916;2023-04-02T13:23:34;100083.75;;;6.90;100.00
21779;BME280;11050;52.222;20.916;2023-04-02T13:26:19;100088.25;;;7.07;100.00
21779;BME280;11050;52.222;20.916;2023-04-02T13:31:33;100085.78;;;7.29;100.00
21779;BME280;11050;52.222;20.916;2023-04-02T13:33:59;100086.28;;;7.26;100.00
21779;BME280;11050;52.222;20.916;2023-04-02T13:36:26;100093.72;;;7.07;100.00
21779;BME280;11050;52.222;20.916;2023-04-02T13:38:54;100098.97;;;6.97;100.00
21779;BME280;11050;52.222;20.916;2023-04-02T13:41:29;100105.00;;;6.99;100.00
21779;BME280;11050;52.222;20.916;2023-04-02T13:43:59;100094.69;;;7.01;100.00
21779;BME280;11050;52.222;20.916;2023-04-02T13:46:30;100093.13;;;7.05;100.00
21779;BME280;11050;52.222;20.916;2023-04-02T13:48:57;100100.16;;;7.01;100.00
21779;BME280;11050;52.222;20.916;2023-04-02T13:51:34;100089.28;;;6.83;100.00
21779;BME280;11050;52.222;20.916;2023-04-02T13:54:01;100101.41;;;6.87;100.00
21779;BME280;11050;52.222;20.916;2023-04-02T13:56:29;100105.13;;;6.93;100.00
21779;BME280;11050;52.222;20.916;2023-04-02T13:58:55;100109.75;;;6.81;100.00
21779;BME280;11050;52.222;20.916;2023-04-02T14:01:23;100106.75;;;6.82;100.00
21779;BME280;11050;52.222;20.916;2023-04-02T14:03:50;100114.97;;;6.82;100.00
21779;BME280;11050;52.222;20.916;2023-04-02T14:23:09;100147.88;;;6.28;100.00
21779;BME280;11050;52.222;20.916;2023-04-02T14:31:32;100156.00;;;5.98;100.00
21779;BME280;11050;52.222;20.916;2023-04-02T14:34:18;100160.84;;;5.96;100.00
21779;BME280;11050;52.222;20.916;2023-04-02T14:40:23;100159.44;;;5.94;100.00
21779;BME280;11050;52.222;20.916;2023-04-02T14:43:07;100171.63;;;5.91;100.00
21779;BME280;11050;52.222;20.916;2023-04-02T14:45:50;100167.28;;;5.84;100.00
21779;BME280;11050;52.222;20.916;2023-04-02T14:50:59;100164.06;;;5.68;100.00
21779;BME280;11050;52.222;20.916;2023-04-02T14:53:47;100174.97;;;5.68;100.00
21779;BME280;11050;52.222;20.916;2023-04-02T14:56:18;100177.09;;;5.66;100.00
21779;BME280;11050;52.222;20.916;2023-04-02T14:58:55;100177.38;;;5.58;100.00
21779;BME280;11050;52.222;20.916;2023-04-02T15:01:39;100186.84;;;5.56;100.00
21779;BME280;11050;52.222;20.916;2023-04-02T15:04:17;100194.41;;;5.54;100.00
21779;BME280;11050;52.222;20.916;2023-04-02T15:06:50;100198.41;;;5.51;100.00
21779;BME280;11050;52.222;20.916;2023-04-02T15:09:31;100194.91;;;5.44;100.00
21779;BME280;11050;52.222;20.916;2023-04-02T15:12:08;100202.91;;;5.39;100.00
21779;BME280;11050;52.222;20.916;2023-04-02T15:14:47;100204.25;;;5.30;100.00
21779;BME280;11050;52.222;20.916;2023-04-02T15:17:15;100217.06;;;5.30;100.00
21779;BME280;11050;52.222;20.916;2023-04-02T15:19:41;100220.16;;;5.33;100.00
21779;BME280;11050;52.222;20.916;2023-04-02T15:22:30;100221.81;;;5.34;100.00
21779;BME280;11050;52.222;20.916;2023-04-02T15:25:31;100224.66;;;5.21;100.00
21779;BME280;11050;52.222;20.916;2023-04-02T15:30:43;100241.72;;;5.10;100.00
21779;BME280;11050;52.222;20.916;2023-04-02T15:36:35;100246.47;;;4.83;100.00
21779;BME280;11050;52.222;20.916;2023-04-02T15:45:23;100256.44;;;4.58;100.00
21779;BME280;11050;52.222;20.916;2023-04-02T15:48:35;100263.38;;;4.54;100.00
21779;BME280;11050;52.222;20.916;2023-04-02T16:00:26;100277.03;;;4.41;100.00
21779;BME280;11050;52.222;20.916;2023-04-02T16:03:25;100277.69;;;4.37;100.00
21779;BME280;11050;52.222;20.916;2023-04-02T16:12:39;100286.28;;;4.27;100.00
21779;BME280;11050;52.222;20.916;2023-04-02T16:15:36;100281.25;;;4.24;100.00
21779;BME280;11050;52.222;20.916;2023-04-02T16:18:24;100298.44;;;4.25;100.00
21779;BME280;11050;52.222;20.916;2023-04-02T16:20:53;100301.53;;;4.35;100.00
21779;BME280;11050;52.222;20.916;2023-04-02T16:23:33;100311.59;;;4.41;100.00
21779;BME280;11050;52.222;20.916;2023-04-02T16:29:06;100322.69;;;4.26;100.00
21779;BME280;11050;52.222;20.916;2023-04-02T16:52:34;100348.81;;;4.40;100.00
21779;BME280;11050;52.222;20.916;2023-04-02T16:58:33;100358.84;;;4.40;100.00
21779;BME280;11050;52.222;20.916;2023-04-02T17:01:17;100358.84;;;4.46;100.00
21779;BME280;11050;52.222;20.916;2023-04-02T17:06:40;100363.91;;;4.43;100.00
21779;BME280;11050;52.222;20.916;2023-04-02T17:09:17;100376.00;;;4.47;100.00
21779;BME280;11050;52.222;20.916;2023-04-02T17:11:49;100374.78;;;4.43;100.00
21779;BME280;11050;52.222;20.916;2023-04-02T17:14:37;100380.63;;;4.40;100.00
21779;BME280;11050;52.222;20.916;2023-04-02T17:17:07;100370.38;;;4.42;100.00
21779;BME280;11050;52.222;20.916;2023-04-02T17:19:34;100382.28;;;4.47;100.00
21779;BME280;11050;52.222;20.916;2023-04-02T17:22:03;100383.34;;;4.46;100.00
21779;BME280;11050;52.222;20.916;2023-04-02T17:24:39;100374.34;;;4.52;100.00
21779;BME280;11050;52.222;20.916;2023-04-02T17:27:27;100380.38;;;4.61;100.00
21779;BME280;11050;52.222;20.916;2023-04-02T17:30:04;100383.72;;;4.63;100.00
21779;BME280;11050;52.222;20.916;2023-04-02T17:32:36;100386.84;;;4.66;100.00
21779;BME280;11050;52.222;20.916;2023-04-02T17:35:32;100399.59;;;4.72;100.00
21779;BME280;11050;52.222;20.916;2023-04-02T17:38:12;100396.03;;;4.72;100.00